Time,TemperatureF,DewpointF,PressureIn,WindDirection,WindDirectionDegrees,WindSpeedMPH,WindSpeedGustMPH,Humidity,HourlyPrecipIn,Conditions,Clouds,dailyrainin,SoftwareType,DateUTC
2013-07-16 01:33:00,71.8,71.5,30.08,East,90,0.0,-999.0,99,-99.99,,,0.01,Acu-Link.com,2013-07-16 05:33:00,
2013-07-16 01:49:00,71.6,71.3,30.09,West,270,0.0,-999.0,99,-99.99,,,0.01,Acu-Link.com,2013-07-16 05:49:00,
2013-07-16 02:04:00,71.1,70.8,30.09,WSW,247,0.0,-999.0,99,-99.99,,,0.01,Acu-Link.com,2013-07-16 06:04:00,
2013-07-16 02:19:00,70.7,70.4,30.09,WSW,247,0.0,-999.0,99,-99.99,,,0.01,Acu-Link.com,2013-07-16 06:19:00,
2013-07-16 02:34:00,70.3,70.0,30.09,East,90,0.0,-999.0,99,-99.99,,,0.01,Acu-Link.com,2013-07-16 06:34:00,
2013-07-16 02:50:00,70.0,69.7,30.09,West,270,0.0,-999.0,99,-99.99,,,0.01,Acu-Link.com,2013-07-16 06:50:00,
2013-07-16 03:05:00,69.6,69.3,30.09,West,270,0.0,-999.0,99,-99.99,,,0.01,Acu-Link.com,2013-07-16 07:05:00,
2013-07-16 03:20:00,69.4,69.1,30.08,WSW,247,0.0,-999.0,99,-99.99,,,0.01,Acu-Link.com,2013-07-16 07:20:00,
2013-07-16 03:36:00,69.1,68.8,30.09,WSW,247,0.0,-999.0,99,-99.99,,,0.01,Acu-Link.com,2013-07-16 07:36:00,
2013-07-16 03:51:00,68.9,68.6,30.08,SW,225,0.0,-999.0,99,-99.99,,,0.01,Acu-Link.com,2013-07-16 07:51:00,
2013-07-16 04:06:00,68.5,68.2,30.08,WSW,247,0.0,-999.0,99,-99.99,,,0.01,Acu-Link.com,2013-07-16 08:06:00,
2013-07-16 04:22:00,68.4,68.1,30.09,West,270,0.0,-999.0,99,-99.99,,,0.01,Acu-Link.com,2013-07-16 08:22:00,
2013-07-16 04:37:00,68.4,68.1,30.09,SW,225,0.0,-999.0,99,-99.99,,,0.01,Acu-Link.com,2013-07-16 08:37:00,
2013-07-16 04:53:00,68.0,67.7,30.08,West,270,0.0,-999.0,99,-99.99,,,0.01,Acu-Link.com,2013-07-16 08:53:00,
2013-07-16 05:09:00,67.8,67.5,30.09,SW,225,0.0,-999.0,99,-99.99,,,0.01,Acu-Link.com,2013-07-16 09:09:00,
2013-07-16 05:25:00,67.6,67.3,30.09,WSW,247,0.0,-999.0,99,-99.99,,,0.01,Acu-Link.com,2013-07-16 09:25:00,
2013-07-16 05:41:00,67.5,67.2,30.09,West,270,0.0,-999.0,99,-99.99,,,0.01,Acu-Link.com,2013-07-16 09:41:00,
2013-07-16 05:56:00,67.5,67.2,30.11,SSW,202,0.0,-999.0,99,-99.99,,,0.01,Acu-Link.com,2013-07-16 09:56:00,
2013-07-16 06:11:00,67.3,67.0,30.10,WSW,247,0.0,-999.0,99,-99.99,,,0.01,Acu-Link.com,2013-07-16 10:11:00,
2013-07-16 06:26:00,66.9,66.6,30.11,West,270,0.0,-999.0,99,-99.99,,,0.01,Acu-Link.com,2013-07-16 10:26:00,
2013-07-16 06:41:00,66.9,66.6,30.11,WSW,247,0.0,-999.0,99,-99.99,,,0.01,Acu-Link.com,2013-07-16 10:41:00,
2013-07-16 06:57:00,66.9,66.6,30.11,South,180,0.0,-999.0,99,-99.99,,,0.01,Acu-Link.com,2013-07-16 10:57:00,
2013-07-16 07:12:00,68.4,68.1,30.12,West,270,0.0,-999.0,99,-99.99,,,0.01,Acu-Link.com,2013-07-16 11:12:00,
2013-07-16 07:27:00,72.0,71.4,30.11,SW,225,0.0,-999.0,98,-99.99,,,0.01,Acu-Link.com,2013-07-16 11:27:00,
2013-07-16 07:43:00,75.2,72.4,30.12,SE,135,0.0,-999.0,91,-99.99,,,0.01,Acu-Link.com,2013-07-16 11:43:00,
2013-07-16 07:59:00,77.9,73.4,30.11,ESE,112,0.0,-999.0,86,-99.99,,,0.01,Acu-Link.com,2013-07-16 11:59:00,
2013-07-16 08:14:00,81.1,74.3,30.12,SE,135,0.0,-999.0,80,-99.99,,,0.02,Acu-Link.com,2013-07-16 12:14:00,
2013-07-16 08:29:00,84.2,75.0,30.11,ESE,112,0.0,-999.0,74,-99.99,,,0.02,Acu-Link.com,2013-07-16 12:29:00,
2013-07-16 08:44:00,85.6,75.1,30.11,ESE,112,1.7,-999.0,71,-99.99,,,0.02,Acu-Link.com,2013-07-16 12:44:00,
2013-07-16 08:59:00,86.2,75.2,30.12,East,90,2.7,-999.0,70,-99.99,,,0.02,Acu-Link.com,2013-07-16 12:59:00,
2013-07-16 09:16:00,86.9,75.5,30.11,East,90,1.7,-999.0,69,-99.99,,,0.02,Acu-Link.com,2013-07-16 13:16:00,
2013-07-16 09:31:00,88.0,75.6,30.11,NNE,22,2.7,-999.0,67,-99.99,,,0.02,Acu-Link.com,2013-07-16 13:31:00,
2013-07-16 09:48:00,89.6,74.8,30.11,ESE,112,2.7,-999.0,62,-99.99,,,0.02,Acu-Link.com,2013-07-16 13:48:00,
2013-07-16 10:03:00,91.6,74.2,30.10,NE,45,2.7,-999.0,57,-99.99,,,0.02,Acu-Link.com,2013-07-16 14:03:00,
2013-07-16 10:19:00,90.3,73.0,30.10,SE,135,3.7,-999.0,57,-99.99,,,0.02,Acu-Link.com,2013-07-16 14:19:00,
2013-07-16 10:34:00,91.6,74.2,30.09,East,90,4.2,-999.0,57,-99.99,,,0.02,Acu-Link.com,2013-07-16 14:34:00,
2013-07-16 10:49:00,92.3,73.2,30.09,NE,45,4.7,-999.0,54,-99.99,,,0.02,Acu-Link.com,2013-07-16 14:49:00,
2013-07-16 11:04:00,91.0,72.6,30.09,NNE,22,3.2,-999.0,55,-99.99,,,0.02,Acu-Link.com,2013-07-16 15:04:00,
2013-07-16 11:20:00,93.4,72.5,30.08,SW,225,2.2,-999.0,51,-99.99,,,0.02,Acu-Link.com,2013-07-16 15:20:00,
2013-07-16 11:41:00,94.6,75.3,30.10,South,180,0.0,-999.0,54,-99.99,,,0.02,Acu-Link.com,2013-07-16 15:41:00,
2013-07-16 11:57:00,95.4,75.5,30.07,ESE,112,2.7,-999.0,53,-99.99,,,0.03,Acu-Link.com,2013-07-16 15:57:00,
2013-07-16 12:12:00,95.2,74.7,30.06,NNW,337,2.7,-999.0,52,-99.99,,,0.03,Acu-Link.com,2013-07-16 16:12:00,
2013-07-16 12:30:00,95.4,75.5,30.05,East,90,2.7,-999.0,53,-99.99,,,0.03,Acu-Link.com,2013-07-16 16:30:00,
2013-07-16 12:45:00,96.3,74.0,30.07,West,270,0.0,-999.0,49,-99.99,,,0.03,Acu-Link.com,2013-07-16 16:45:00,
2013-07-16 13:00:00,96.8,74.4,30.05,ESE,112,3.7,-999.0,49,-99.99,,,0.03,Acu-Link.com,2013-07-16 17:00:00,
2013-07-16 13:16:00,95.4,74.9,30.05,ENE,67,2.7,-999.0,52,-99.99,,,0.03,Acu-Link.com,2013-07-16 17:16:00,
2013-07-16 13:31:00,95.4,71.9,30.05,North,0,4.2,-999.0,47,-99.99,,,0.03,Acu-Link.com,2013-07-16 17:31:00,
2013-07-16 13:46:00,95.2,73.6,30.03,ENE,67,3.2,-999.0,50,-99.99,,,0.03,Acu-Link.com,2013-07-16 17:46:00,
2013-07-16 14:01:00,95.9,76.5,30.03,SSE,157,3.7,-999.0,54,-99.99,,,0.03,Acu-Link.com,2013-07-16 18:01:00,
2013-07-16 14:16:00,96.8,74.4,30.02,NNW,337,2.7,-999.0,49,-99.99,,,0.03,Acu-Link.com,2013-07-16 18:16:00,
2013-07-16 14:31:00,99.7,76.5,30.02,ENE,67,0.0,-999.0,48,-99.99,,,0.03,Acu-Link.com,2013-07-16 18:31:00,
2013-07-16 14:46:00,99.0,74.5,30.01,North,0,2.7,-999.0,46,-99.99,,,0.03,Acu-Link.com,2013-07-16 18:46:00,
2013-07-16 15:02:00,98.2,73.8,30.01,East,90,0.0,-999.0,46,-99.99,,,0.03,Acu-Link.com,2013-07-16 19:02:00,
2013-07-16 15:17:00,96.8,73.2,29.98,NE,45,1.1,-999.0,47,-99.99,,,0.03,Acu-Link.com,2013-07-16 19:17:00,
2013-07-16 15:32:00,99.9,74.7,30.00,SE,135,4.7,-999.0,45,-99.99,,,0.03,Acu-Link.com,2013-07-16 19:32:00,
2013-07-16 15:47:00,98.6,72.9,29.97,ESE,112,2.2,-999.0,44,-99.99,,,0.03,Acu-Link.com,2013-07-16 19:47:00,
2013-07-16 16:03:00,98.8,73.0,29.98,ENE,67,2.2,-999.0,44,-99.99,,,0.03,Acu-Link.com,2013-07-16 20:03:00,
2013-07-16 16:19:00,98.8,73.0,29.98,NNW,337,2.2,-999.0,44,-99.99,,,0.03,Acu-Link.com,2013-07-16 20:19:00,
2013-07-16 16:34:00,97.7,72.7,29.99,North,0,3.7,-999.0,45,-99.99,,,0.03,Acu-Link.com,2013-07-16 20:34:00,
2013-07-16 16:50:00,97.0,70.7,29.98,North,0,3.2,-999.0,43,-99.99,,,0.03,Acu-Link.com,2013-07-16 20:50:00,
2013-07-16 17:05:00,97.5,71.9,29.98,NNE,22,2.7,-999.0,44,-99.99,,,0.03,Acu-Link.com,2013-07-16 21:05:00,
2013-07-16 17:20:00,97.5,70.5,29.98,NNE,22,2.7,-999.0,42,-99.99,,,0.03,Acu-Link.com,2013-07-16 21:20:00,
2013-07-16 17:35:00,96.4,69.5,29.97,WNW,292,3.7,-999.0,42,-99.99,,,0.03,Acu-Link.com,2013-07-16 21:35:00,
2013-07-16 17:51:00,92.3,68.5,29.98,SE,135,2.2,-999.0,46,-99.99,,,0.03,Acu-Link.com,2013-07-16 21:51:00,
2013-07-16 18:06:00,91.6,69.1,29.97,North,0,2.2,-999.0,48,-99.99,,,0.03,Acu-Link.com,2013-07-16 22:06:00,
2013-07-16 18:21:00,90.1,71.2,30.00,West,270,2.7,-999.0,54,-99.99,,,0.03,Acu-Link.com,2013-07-16 22:21:00,
2013-07-16 18:38:00,89.4,71.1,30.00,NNW,337,0.0,-999.0,55,-99.99,,,0.03,Acu-Link.com,2013-07-16 22:38:00,
2013-07-16 18:53:00,88.7,72.0,30.00,NNE,22,1.7,-999.0,58,-99.99,,,0.03,Acu-Link.com,2013-07-16 22:53:00,
2013-07-16 19:08:00,88.2,74.9,29.98,West,270,0.0,-999.0,65,-99.99,,,0.03,Acu-Link.com,2013-07-16 23:08:00,
2013-07-16 19:23:00,85.8,74.9,29.98,WNW,292,1.1,-999.0,70,-99.99,,,0.03,Acu-Link.com,2013-07-16 23:23:00,
2013-07-16 19:38:00,84.6,75.8,30.02,WNW,292,0.0,-999.0,75,-99.99,,,0.03,Acu-Link.com,2013-07-16 23:38:00,
2013-07-16 19:54:00,82.9,74.5,30.01,West,270,0.0,-999.0,76,-99.99,,,0.03,Acu-Link.com,2013-07-16 23:54:00,
2013-07-16 20:10:00,81.9,75.1,30.03,West,270,0.0,-999.0,80,-99.99,,,0.03,Acu-Link.com,2013-07-17 00:10:00,
2013-07-16 20:26:00,80.8,76.2,30.02,West,270,0.0,-999.0,86,-99.99,,,0.03,Acu-Link.com,2013-07-17 00:26:00,
2013-07-16 20:41:00,78.8,74.9,30.03,WNW,292,1.7,-999.0,88,-99.99,,,0.03,Acu-Link.com,2013-07-17 00:41:00,
2013-07-16 20:57:00,78.1,74.6,30.03,West,270,0.0,-999.0,89,-99.99,,,0.03,Acu-Link.com,2013-07-17 00:57:00,
2013-07-16 21:13:00,77.2,74.4,30.02,WSW,247,0.0,-999.0,91,-99.99,,,0.03,Acu-Link.com,2013-07-17 01:13:00,
2013-07-16 21:28:00,76.3,74.1,30.04,WSW,247,0.0,-999.0,93,-99.99,,,0.03,Acu-Link.com,2013-07-17 01:28:00,
2013-07-16 21:46:00,75.6,74.1,30.04,West,270,0.0,-999.0,95,-99.99,,,0.03,Acu-Link.com,2013-07-17 01:46:00,
2013-07-16 22:03:00,75.2,73.7,30.05,West,270,0.0,-999.0,95,-99.99,,,0.03,Acu-Link.com,2013-07-17 02:03:00,
2013-07-16 22:19:00,74.3,73.4,30.04,West,270,0.0,-999.0,97,-99.99,,,0.03,Acu-Link.com,2013-07-17 02:19:00,
2013-07-16 22:34:00,74.1,73.2,30.05,West,270,0.0,-999.0,97,-99.99,,,0.03,Acu-Link.com,2013-07-17 02:34:00,
2013-07-16 22:49:00,73.6,73.0,30.05,WNW,292,0.0,-999.0,98,-99.99,,,0.03,Acu-Link.com,2013-07-17 02:49:00,
2013-07-16 23:04:00,73.2,72.6,30.05,WSW,247,0.0,-999.0,98,-99.99,,,0.03,Acu-Link.com,2013-07-17 03:04:00,
2013-07-16 23:27:00,72.9,72.3,30.06,WSW,247,0.0,-999.0,98,-99.99,,,0.03,Acu-Link.com,2013-07-17 03:27:00,
2013-07-16 23:42:00,72.3,72.0,30.06,West,270,0.0,-999.0,99,-99.99,,,0.03,Acu-Link.com,2013-07-17 03:42:00,
2013-07-16 23:57:00,72.1,71.8,30.06,WSW,247,0.0,-999.0,99,-99.99,,,0.03,Acu-Link.com,2013-07-17 03:57:00,